createdAt,value
2022-11-11T00:00:48.079Z,101451.41
2022-11-11T00:03:34.577Z,101445.59
2022-11-11T00:06:20.863Z,101442.97
2022-11-11T00:09:07.018Z,101437.06
2022-11-11T00:11:53.154Z,101427.53
2022-11-11T00:14:40.792Z,101432.75
2022-11-11T00:17:44.979Z,101430.53
2022-11-11T00:20:49.385Z,101431.31
2022-11-11T00:23:53.643Z,101434.34
2022-11-11T00:26:43.377Z,101435.91
2022-11-11T00:29:29.911Z,101442.56
2022-11-11T00:32:28.888Z,101445.72
2022-11-11T00:35:34.186Z,101445.25
2022-11-11T00:38:39.612Z,101450.19
2022-11-11T00:41:27.201Z,101450.19
2022-11-11T00:44:13.766Z,101442.41
2022-11-11T00:47:17.357Z,101438.19
2022-11-11T00:50:24.382Z,101441.53
2022-11-11T00:53:13.176Z,101441.53
2022-11-11T00:56:00.095Z,101446.19
2022-11-11T00:58:46.678Z,101457.97
2022-11-11T01:01:33.112Z,101461.97
2022-11-11T01:04:19.792Z,101468.97
2022-11-11T01:07:07.297Z,101468.84
2022-11-11T01:09:54.047Z,101473.84
2022-11-11T01:12:40.655Z,101471.09
2022-11-11T01:15:26.705Z,101476.19
2022-11-11T01:18:15.017Z,101477.97
2022-11-11T01:21:03.832Z,101475.28
2022-11-11T01:23:52.941Z,101482.84
2022-11-11T01:26:39.387Z,101480.75
2022-11-11T01:29:25.786Z,101477.66
2022-11-11T01:32:11.901Z,101471.34
2022-11-11T01:34:58.171Z,101482.19
2022-11-11T01:37:44.567Z,101484.53
2022-11-11T01:40:32.259Z,101477.53
2022-11-11T01:43:23.588Z,101457.69
2022-11-11T01:46:26.957Z,101466.22
2022-11-11T01:49:26.574Z,101477.09
2022-11-11T01:52:15.750Z,101475.34
2022-11-11T01:55:06.982Z,101469.44
2022-11-11T01:57:58.486Z,101475.34
2022-11-11T02:00:44.608Z,101476.66
2022-11-11T02:03:34.482Z,101486.88
2022-11-11T02:06:20.425Z,101486.19
2022-11-11T02:09:08.610Z,101484.66
2022-11-11T02:12:15.518Z,101485.53
2022-11-11T02:15:04.121Z,101481.78
2022-11-11T02:17:50.996Z,101476.66
2022-11-11T02:20:40.220Z,101475.66
2022-11-11T02:23:31.548Z,101478.00
2022-11-11T02:26:19.903Z,101479.53
2022-11-11T02:29:12.028Z,101474.44
2022-11-11T02:31:58.523Z,101470.09
2022-11-11T02:34:45.184Z,101474.00
2022-11-11T02:37:31.273Z,101469.44
2022-11-11T02:40:21.304Z,101468.69
2022-11-11T02:43:09.060Z,101465.25
2022-11-11T02:45:55.749Z,101464.22
2022-11-11T02:48:41.864Z,101469.13
2022-11-11T02:51:28.028Z,101464.44
2022-11-11T02:54:14.936Z,101467.56
2022-11-11T02:57:10.122Z,101472.53
2022-11-11T02:59:59.775Z,101467.31
2022-11-11T03:02:46.268Z,101471.53
2022-11-11T03:05:33.380Z,101466.34
2022-11-11T03:08:19.748Z,101458.00
2022-11-11T03:11:06.461Z,101461.25
2022-11-11T03:13:53.155Z,101473.09
2022-11-11T03:16:58.294Z,101456.91
2022-11-11T03:19:45.052Z,101459.22
2022-11-11T03:25:40.160Z,101457.13
2022-11-11T03:28:26.643Z,101452.03
2022-11-11T03:31:13.075Z,101448.69
2022-11-11T03:34:18.308Z,101460.91
2022-11-11T03:37:23.371Z,101477.97
2022-11-11T03:40:10.696Z,101485.84
2022-11-11T03:43:02.969Z,101486.41
2022-11-11T03:45:52.145Z,101496.59
2022-11-11T03:48:38.339Z,101505.91
2022-11-11T03:51:25.731Z,101507.81
2022-11-11T03:54:12.213Z,101521.22
2022-11-11T03:57:20.896Z,101516.78
2022-11-11T04:00:14.224Z,101516.44
2022-11-11T04:03:25.289Z,101521.31
2022-11-11T04:06:29.509Z,101513.22
2022-11-11T04:09:35.026Z,101532.38
2022-11-11T04:12:21.905Z,101530.84
2022-11-11T04:15:26.561Z,101534.72
2022-11-11T04:18:12.972Z,101533.69
2022-11-11T04:21:16.472Z,101536.22
2022-11-11T04:24:02.975Z,101544.41
2022-11-11T04:26:49.431Z,101542.75
2022-11-11T04:29:35.901Z,101542.53
2022-11-11T04:32:43.353Z,101535.31
2022-11-11T04:35:29.411Z,101542.72
2022-11-11T04:38:33.063Z,101548.16
2022-11-11T04:41:19.383Z,101550.72
2022-11-11T04:44:24.759Z,101559.03
2022-11-11T04:47:11.065Z,101558.00
2022-11-11T04:49:57.281Z,101566.78
2022-11-11T04:52:44.020Z,101561.03
2022-11-11T04:55:48.064Z,101562.81
2022-11-11T04:58:35.118Z,101572.34
2022-11-11T05:01:36.823Z,101564.81
2022-11-11T05:04:23.102Z,101560.84
2022-11-11T05:07:26.941Z,101570.38
2022-11-11T05:10:13.198Z,101588.34
2022-11-11T05:13:13.651Z,101585.47
2022-11-11T05:16:17.490Z,101585.81
2022-11-11T05:19:22.478Z,101591.91
2022-11-11T05:22:14.056Z,101599.44
2022-11-11T05:25:17.692Z,101602.25
2022-11-11T05:28:04.121Z,101601.81
2022-11-11T05:30:50.217Z,101607.38
2022-11-11T05:33:36.466Z,101608.84
2022-11-11T05:36:24.262Z,101613.50
2022-11-11T05:39:10.611Z,101618.19
2022-11-11T05:41:56.859Z,101616.09
2022-11-11T05:44:42.991Z,101616.44
2022-11-11T05:47:29.137Z,101625.16
2022-11-11T05:50:16.025Z,101629.72
2022-11-11T05:53:03.337Z,101624.88
2022-11-11T05:55:51.192Z,101632.63
2022-11-11T05:58:37.315Z,101638.84
2022-11-11T06:01:23.894Z,101634.19
2022-11-11T06:04:16.699Z,101624.22
2022-11-11T06:07:04.604Z,101630.31
2022-11-11T06:09:52.455Z,101635.66
2022-11-11T06:13:02.046Z,101637.44
2022-11-11T06:15:48.388Z,101637.00
2022-11-11T06:18:34.581Z,101643.97
2022-11-11T06:21:20.899Z,101635.28
2022-11-11T06:24:07.496Z,101637.72
2022-11-11T06:26:55.406Z,101635.25
2022-11-11T06:29:42.289Z,101634.81
2022-11-11T06:32:30.030Z,101643.63
2022-11-11T06:35:16.350Z,101647.22
2022-11-11T06:38:02.906Z,101649.44
2022-11-11T06:40:49.293Z,101653.66
2022-11-11T06:43:36.908Z,101651.88
2022-11-11T06:46:24.885Z,101646.53
2022-11-11T06:49:10.958Z,101653.19
2022-11-11T06:51:57.159Z,101655.41
2022-11-11T06:54:43.257Z,101655.41
2022-11-11T06:57:29.469Z,101652.75
2022-11-11T07:00:18.235Z,101658.94
2022-11-11T07:03:05.040Z,101652.06
2022-11-11T07:05:55.932Z,101653.84
2022-11-11T07:08:44.868Z,101648.88
2022-11-11T07:11:31.299Z,101660.06
2022-11-11T07:14:17.458Z,101650.75
2022-11-11T07:17:06.508Z,101663.84
2022-11-11T07:19:53.225Z,101666.31
2022-11-11T07:22:39.575Z,101664.22
2022-11-11T07:25:25.936Z,101664.56
2022-11-11T07:28:11.994Z,101660.59
2022-11-11T07:30:58.121Z,101664.38
2022-11-11T07:33:45.658Z,101659.72
2022-11-11T07:36:31.908Z,101664.50
2022-11-11T07:39:17.982Z,101671.31
2022-11-11T07:42:04.299Z,101668.41
2022-11-11T07:44:50.459Z,101669.28
2022-11-11T07:47:37.059Z,101665.28
2022-11-11T07:50:24.414Z,101671.72
2022-11-11T07:53:10.535Z,101666.16
2022-11-11T07:55:56.600Z,101665.06
2022-11-11T07:58:42.663Z,101677.25
2022-11-11T08:01:28.797Z,101671.50
2022-11-11T08:04:14.928Z,101669.78
2022-11-11T08:07:02.587Z,101666.31
2022-11-11T08:09:48.727Z,101676.44
2022-11-11T08:12:52.390Z,101681.66
2022-11-11T08:15:38.692Z,101673.00
2022-11-11T08:18:25.094Z,101685.00
2022-11-11T08:21:11.365Z,101684.31
2022-11-11T08:27:05.386Z,101684.53
2022-11-11T08:29:51.627Z,101683.38
2022-11-11T08:32:37.670Z,101676.91
2022-11-11T08:35:23.875Z,101674.91
2022-11-11T08:38:09.965Z,101672.66
2022-11-11T08:41:00.991Z,101675.94
2022-11-11T08:43:47.070Z,101674.31
2022-11-11T08:46:33.322Z,101672.34
2022-11-11T08:49:19.325Z,101676.63
2022-11-11T08:52:05.669Z,101678.22
2022-11-11T08:54:52.181Z,101674.69
2022-11-11T08:57:39.545Z,101671.75
2022-11-11T09:00:25.635Z,101668.91
2022-11-11T09:03:13.053Z,101668.59
2022-11-11T09:05:59.438Z,101676.06
2022-11-11T09:08:45.901Z,101674.59
2022-11-11T09:11:36.129Z,101685.88
2022-11-11T09:14:24.030Z,101682.53
2022-11-11T09:17:10.213Z,101679.16
2022-11-11T09:19:56.368Z,101673.47
2022-11-11T09:22:46.260Z,101668.00
2022-11-11T09:25:32.324Z,101668.75
2022-11-11T09:28:18.555Z,101665.16
2022-11-11T09:31:37.460Z,101663.16
2022-11-11T09:34:13.249Z,101655.97
2022-11-11T09:36:59.564Z,101648.19
2022-11-11T09:39:45.755Z,101659.31
2022-11-11T09:42:38.693Z,101652.00
2022-11-11T09:45:33.272Z,101651.53
2022-11-11T09:48:38.602Z,101655.28
2022-11-11T09:51:29.794Z,101652.50
2022-11-11T09:54:23.033Z,101655.50
2022-11-11T09:57:16.587Z,101658.09
2022-11-11T10:00:07.296Z,101658.06
2022-11-11T10:02:56.037Z,101651.16
2022-11-11T10:05:49.418Z,101654.00
2022-11-11T10:08:43.018Z,101649.75
2022-11-11T10:11:52.233Z,101648.06
2022-11-11T10:14:41.114Z,101644.91
2022-11-11T10:17:35.818Z,101653.06
2022-11-11T10:20:26.532Z,101652.78
2022-11-11T10:23:17.148Z,101660.84
2022-11-11T10:26:13.176Z,101652.41
2022-11-11T10:29:01.633Z,101655.25
2022-11-11T10:31:56.516Z,101656.44
2022-11-11T10:34:42.965Z,101658.19
2022-11-11T10:37:40.614Z,101645.66
2022-11-11T10:40:35.574Z,101651.59
2022-11-11T10:43:24.519Z,101647.34
2022-11-11T10:46:17.266Z,101643.59
2022-11-11T10:49:08.646Z,101645.91
2022-11-11T10:52:04.066Z,101651.72
2022-11-11T10:54:58.222Z,101647.75
2022-11-11T10:57:52.825Z,101644.91
2022-11-11T11:00:43.961Z,101642.50
2022-11-11T11:03:35.393Z,101640.81
2022-11-11T11:06:30.958Z,101642.53
2022-11-11T11:09:22.342Z,101632.94
2022-11-11T11:12:14.728Z,101630.41
2022-11-11T11:15:09.517Z,101624.25
2022-11-11T11:18:02.261Z,101622.66
2022-11-11T11:20:59.011Z,101618.88
2022-11-11T11:23:46.619Z,101619.16
2022-11-11T11:26:44.911Z,101609.97
2022-11-11T11:29:33.996Z,101609.69
2022-11-11T11:32:23.762Z,101607.78
2022-11-11T11:35:10.057Z,101613.28
2022-11-11T11:37:56.095Z,101606.75
2022-11-11T11:40:53.360Z,101599.22
2022-11-11T11:43:42.654Z,101593.81
2022-11-11T11:46:31.164Z,101595.41
2022-11-11T11:49:33.181Z,101596.06
2022-11-11T11:52:26.364Z,101588.25
2022-11-11T11:55:17.762Z,101589.59
2022-11-11T11:58:31.359Z,101579.91
2022-11-11T12:01:23.261Z,101584.13
2022-11-11T12:04:26.559Z,101585.03
2022-11-11T12:07:21.597Z,101581.94
2022-11-11T12:10:20.063Z,101582.13
2022-11-11T12:13:15.911Z,101586.31
2022-11-11T12:16:15.738Z,101586.47
2022-11-11T12:19:17.317Z,101589.84
2022-11-11T12:22:12.273Z,101591.91
2022-11-11T12:25:08.504Z,101589.63
2022-11-11T12:28:03.157Z,101582.34
2022-11-11T12:30:52.819Z,101588.06
2022-11-11T12:33:54.824Z,101588.41
2022-11-11T12:36:49.252Z,101585.78
2022-11-11T12:39:53.908Z,101582.88
2022-11-11T12:42:52.963Z,101584.06
2022-11-11T12:45:47.745Z,101588.53
2022-11-11T12:48:47.344Z,101584.53
2022-11-11T12:51:49.861Z,101581.38
2022-11-11T12:54:46.304Z,101581.25
2022-11-11T12:57:39.994Z,101584.19
2022-11-11T13:00:27.272Z,101590.91
2022-11-11T13:03:33.771Z,101587.13
2022-11-11T13:06:40.844Z,101580.91
2022-11-11T13:09:36.663Z,101591.88
2022-11-11T13:12:29.503Z,101582.00
2022-11-11T13:15:18.579Z,101589.97
2022-11-11T13:18:13.567Z,101577.25
2022-11-11T13:21:02.384Z,101575.09
2022-11-11T13:23:48.516Z,101581.09
2022-11-11T13:26:43.827Z,101584.56
2022-11-11T13:29:55.275Z,101589.53
2022-11-11T13:32:47.087Z,101579.66
2022-11-11T13:35:37.355Z,101573.16
2022-11-11T13:38:31.179Z,101574.06
2022-11-11T13:41:25.205Z,101572.84
2022-11-11T13:44:22.656Z,101572.38
2022-11-11T13:47:17.912Z,101573.03
2022-11-11T13:50:07.676Z,101578.09
2022-11-11T13:52:58.915Z,101572.44
2022-11-11T13:55:47.314Z,101570.09
2022-11-11T13:58:36.658Z,101575.75
2022-11-11T14:01:24.227Z,101573.88
2022-11-11T14:04:12.567Z,101577.03
2022-11-11T14:06:58.821Z,101580.94
2022-11-11T14:10:00.324Z,101587.13
2022-11-11T14:12:48.279Z,101585.59
2022-11-11T14:15:40.970Z,101593.75
2022-11-11T14:18:38.661Z,101587.81
2022-11-11T14:21:50.524Z,101592.63
2022-11-11T14:24:39.951Z,101592.81
2022-11-11T14:27:30.414Z,101589.41
2022-11-11T14:30:36.927Z,101599.44
2022-11-11T14:33:39.466Z,101601.78
2022-11-11T14:36:33.754Z,101589.97
2022-11-11T14:39:33.685Z,101591.84
2022-11-11T14:42:46.036Z,101594.09
2022-11-11T14:46:02.499Z,101601.38
2022-11-11T14:48:59.983Z,101607.78
2022-11-11T14:51:52.101Z,101613.50
2022-11-11T14:54:52.396Z,101608.06
2022-11-11T14:57:40.828Z,101608.84
2022-11-11T15:00:29.447Z,101608.22
2022-11-11T15:03:22.194Z,101597.97
2022-11-11T15:06:15.749Z,101603.19
2022-11-11T15:09:14.059Z,101604.06
2022-11-11T15:12:09.987Z,101598.56
2022-11-11T15:15:04.431Z,101597.13
2022-11-11T15:18:03.171Z,101605.72
2022-11-11T15:21:07.634Z,101607.19
2022-11-11T15:24:08.565Z,101611.16
2022-11-11T15:27:02.029Z,101608.63
2022-11-11T15:30:15.120Z,101611.41
2022-11-11T15:33:10.589Z,101612.03
2022-11-11T15:36:10.829Z,101615.16
2022-11-11T15:39:00.161Z,101615.16
2022-11-11T15:41:50.801Z,101599.63
2022-11-11T15:44:38.498Z,101601.94
2022-11-11T15:47:31.751Z,101603.56
2022-11-11T15:50:30.848Z,101610.97
2022-11-11T15:53:24.158Z,101604.06
2022-11-11T15:56:10.780Z,101605.06
2022-11-11T15:58:56.856Z,101603.69
2022-11-11T16:01:43.296Z,101600.00
2022-11-11T16:07:39.391Z,101603.88
2022-11-11T16:10:29.036Z,101608.25
2022-11-11T16:13:18.911Z,101607.56
2022-11-11T16:16:10.283Z,101619.19
2022-11-11T16:19:02.015Z,101621.59
2022-11-11T16:21:55.722Z,101621.84
2022-11-11T16:24:45.448Z,101618.78
2022-11-11T16:27:33.731Z,101622.94
2022-11-11T16:30:31.898Z,101624.03
2022-11-11T16:33:34.024Z,101625.03
2022-11-11T16:36:20.305Z,101628.88
2022-11-11T16:39:21.573Z,101624.44
2022-11-11T16:42:17.614Z,101619.31
2022-11-11T16:45:05.847Z,101627.69
2022-11-11T16:47:52.258Z,101621.06
2022-11-11T16:50:56.235Z,101605.63
2022-11-11T16:53:45.915Z,101600.22
2022-11-11T16:56:36.007Z,101599.41
2022-11-11T16:59:27.891Z,101600.22
2022-11-11T17:02:18.118Z,101599.09
2022-11-11T17:05:04.219Z,101592.28
2022-11-11T17:07:50.162Z,101593.63
2022-11-11T17:10:40.011Z,101595.59
2022-11-11T17:13:29.127Z,101613.59
2022-11-11T17:16:15.202Z,101607.63
2022-11-11T17:19:02.116Z,101612.78
2022-11-11T17:21:48.182Z,101610.66
2022-11-11T17:24:34.137Z,101612.44
2022-11-11T17:27:20.164Z,101612.63
2022-11-11T17:30:09.522Z,101610.41
2022-11-11T17:32:55.757Z,101615.81
2022-11-11T17:35:51.155Z,101611.53
2022-11-11T17:38:38.042Z,101611.44
2022-11-11T17:41:24.427Z,101610.72
2022-11-11T17:44:10.733Z,101599.94
2022-11-11T17:46:57.981Z,101599.31
2022-11-11T17:49:56.079Z,101599.16
2022-11-11T17:52:42.999Z,101598.78
2022-11-11T17:55:29.352Z,101605.16
2022-11-11T17:58:15.345Z,101600.28
2022-11-11T18:01:06.165Z,101605.38
2022-11-11T18:03:57.713Z,101602.69
2022-11-11T18:06:43.762Z,101598.28
2022-11-11T18:09:30.168Z,101605.38
2022-11-11T18:12:16.156Z,101614.19
2022-11-11T18:15:02.679Z,101626.53
2022-11-11T18:17:48.775Z,101632.97
2022-11-11T18:20:36.406Z,101631.56
2022-11-11T18:23:22.628Z,101632.44
2022-11-11T18:26:09.401Z,101623.16
2022-11-11T18:28:55.652Z,101635.09
2022-11-11T18:31:41.846Z,101625.25
2022-11-11T18:34:27.840Z,101634.56
2022-11-11T18:37:15.317Z,101629.69
2022-11-11T18:40:01.556Z,101622.59
2022-11-11T18:42:47.491Z,101626.16
2022-11-11T18:45:36.563Z,101621.63
2022-11-11T18:48:22.614Z,101616.50
2022-11-11T18:51:10.486Z,101616.50
2022-11-11T18:53:58.407Z,101613.66
2022-11-11T18:56:44.635Z,101614.16
2022-11-11T18:59:30.766Z,101612.22
2022-11-11T19:02:16.964Z,101617.53
2022-11-11T19:05:03.213Z,101613.81
2022-11-11T19:07:49.468Z,101619.31
2022-11-11T19:10:36.770Z,101621.78
2022-11-11T19:13:23.268Z,101623.19
2022-11-11T19:16:11.422Z,101614.19
2022-11-11T19:18:57.989Z,101623.34
2022-11-11T19:21:43.912Z,101623.34
2022-11-11T19:24:33.784Z,101617.47
2022-11-11T19:27:21.796Z,101629.69
2022-11-11T19:30:08.986Z,101631.38
2022-11-11T19:32:55.201Z,101624.28
2022-11-11T19:35:41.594Z,101631.38
2022-11-11T19:38:27.458Z,101631.38
2022-11-11T19:41:15.386Z,101636.31
2022-11-11T19:44:03.144Z,101630.47
2022-11-11T19:46:49.140Z,101638.97
2022-11-11T19:49:38.187Z,101635.41
2022-11-11T19:52:24.479Z,101637.19
2022-11-11T19:55:10.787Z,101640.22
2022-11-11T19:57:57.579Z,101633.31
2022-11-11T20:00:45.219Z,101640.13
2022-11-11T20:03:34.558Z,101646.25
2022-11-11T20:06:23.787Z,101643.19
2022-11-11T20:09:10.355Z,101654.00
2022-11-11T20:11:56.691Z,101653.25
2022-11-11T20:14:42.728Z,101653.03
2022-11-11T20:17:30.176Z,101643.47
2022-11-11T20:20:16.751Z,101650.91
2022-11-11T20:23:06.155Z,101656.53
2022-11-11T20:25:52.495Z,101661.00
2022-11-11T20:28:39.856Z,101669.47
2022-11-11T20:31:28.250Z,101667.91
2022-11-11T20:34:16.055Z,101664.91
2022-11-11T20:37:02.232Z,101661.75
2022-11-11T20:39:48.439Z,101668.84
2022-11-11T20:42:34.386Z,101676.31
2022-11-11T20:45:20.734Z,101666.47
2022-11-11T20:48:09.494Z,101677.72
2022-11-11T20:51:03.596Z,101671.06
2022-11-11T20:53:52.998Z,101668.00
2022-11-11T20:56:39.499Z,101666.59
2022-11-11T20:59:25.703Z,101660.59
2022-11-11T21:02:12.096Z,101660.22
2022-11-11T21:04:58.912Z,101659.03
2022-11-11T21:07:49.477Z,101661.59
2022-11-11T21:10:35.419Z,101659.91
2022-11-11T21:13:21.500Z,101654.25
2022-11-11T21:16:14.065Z,101655.44
2022-11-11T21:19:03.925Z,101656.50
2022-11-11T21:21:50.090Z,101655.88
2022-11-11T21:24:37.760Z,101657.84
2022-11-11T21:27:23.803Z,101657.25
2022-11-11T21:30:10.878Z,101665.94
2022-11-11T21:32:57.090Z,101666.88
2022-11-11T21:35:43.085Z,101658.91
2022-11-11T21:38:29.316Z,101648.78
2022-11-11T21:41:18.625Z,101647.00
2022-11-11T21:44:05.670Z,101645.19
2022-11-11T21:46:51.727Z,101641.66
2022-11-11T21:49:37.949Z,101639.53
2022-11-11T21:52:24.191Z,101632.59
2022-11-11T21:55:10.395Z,101644.38
2022-11-11T21:57:58.076Z,101636.34
2022-11-11T22:00:44.420Z,101633.69
2022-11-11T22:03:32.050Z,101631.84
2022-11-11T22:06:18.464Z,101630.16
2022-11-11T22:09:05.829Z,101640.53
2022-11-11T22:11:51.740Z,101642.94
2022-11-11T22:14:39.374Z,101630.91
2022-11-11T22:17:25.425Z,101631.63
2022-11-11T22:20:12.024Z,101627.75
2022-11-11T22:22:58.137Z,101637.59
2022-11-11T22:25:45.042Z,101639.47
2022-11-11T22:28:32.952Z,101635.88
2022-11-11T22:31:22.438Z,101631.41
2022-11-11T22:34:10.694Z,101627.38
2022-11-11T22:36:57.179Z,101631.34
2022-11-11T22:39:43.164Z,101625.19
2022-11-11T22:42:29.152Z,101620.06
2022-11-11T22:45:15.198Z,101630.31
2022-11-11T22:48:02.765Z,101619.19
2022-11-11T22:50:48.954Z,101618.59
2022-11-11T22:53:35.802Z,101621.66
2022-11-11T22:56:22.099Z,101626.22
2022-11-11T22:59:08.127Z,101624.66
2022-11-11T23:01:54.761Z,101626.22
2022-11-11T23:04:42.205Z,101613.47
2022-11-11T23:07:28.410Z,101623.56
2022-11-11T23:10:14.579Z,101624.94
2022-11-11T23:13:00.611Z,101610.16
2022-11-11T23:15:52.684Z,101611.63
2022-11-11T23:18:39.460Z,101609.66
2022-11-11T23:21:28.593Z,101613.28
2022-11-11T23:24:14.943Z,101615.34
2022-11-11T23:27:01.118Z,101613.75
2022-11-11T23:29:52.203Z,101618.00
2022-11-11T23:32:39.248Z,101616.84
2022-11-11T23:35:25.301Z,101610.16
2022-11-11T23:38:12.784Z,101607.09
2022-11-11T23:40:59.193Z,101613.09
2022-11-11T23:43:45.314Z,101605.31
2022-11-11T23:46:35.526Z,101622.19
2022-11-11T23:49:21.928Z,101625.34
2022-11-11T23:52:07.963Z,101626.41
2022-11-11T23:54:55.438Z,101628.81
2022-11-11T23:57:41.937Z,101632.53
